KLNR/LNR METAR and TAF weather

Enter ICAO airport designator
Station Type Date Time Source
KLNR METAR 2019/02/16 06:56 UTC NOAA

KLNR 160656Z AUTO 00000KT 10SM CLR M21/M22 A3014 RMK AO2 SLP220 T12061222


Station Type Date Time Source
KLNR Decoded METAR 2019/02/16 06:56 UTC NOAA

LONE ROCK TRI-COUNTY REG, WI, United States (KLNR) 43-13N 090-11W 217M
Feb 16, 2019 - 01:56 AM EST / 2019.02.16 0656 UTC
Wind: Calm:0
Visibility: 10 mile(s):0
Sky conditions: clear
Temperature: -5.1 F (-20.6 C)
Dew Point: -8.0 F (-22.2 C)
Relative Humidity: 86%
Pressure (altimeter): 30.14 in. Hg (1020 hPa)
ob: KLNR 160656Z AUTO 00000KT 10SM CLR M21/M22 A3014 RMK AO2 SLP220 T12061222
cycle: 7

Station Type Date Time Source
KLNR TAF UTC NOAA

Error!


Example: see airport list